Monday, April 21, 2014
15:17 UTC
  |  Log In   |  Register Free
Airport Search:

Ormond Beach Municipal Airport
(KOMN)

FAA data valid effective April 3, 2014 until May 29, 2014 (unless otherwise noted).

 
 
 
 
 
 
 
 
 
 
 
 
 
 

Current Aviation Weather for Ormond Beach Municipal Airport (KOMN)

The most recent METAR observation for KOMN was updated at: 1450 UTC
METAR Summary (Translated METAR)
KOMN
211450Z 36007KT 7SM OVC018 17/14 A3010
KDAB
(7.8 nm SE from KOMN)
211453Z 32008KT 8SM SCT012 BKN018 BKN034 18/16 A3009 RMK AO2 RAB37E48 SLP188 P0000 60000 T01830156 53006
TAF Summary (Translated TAF)
KDAB
(7.8 nm SE from KOMN)
211120Z 2112/2212 33008KT P6SM FEW011 OVC020 FM211500 01013KT P6SM SCT025 BKN035 FM212300 02008KT P6SM FEW025 SCT250
  Airport Weather Conditions for KOMN

 Current Weather at OMN
63° F
Overcast
North winds at 8.1 mph
OMN NOAA Radar

Pressure: 30.10 in
Humidity: 83%
Wind: North at 8.1 MPH (7 KT)
Dew Point: 57.2°F
Visibility: 7.00 mi


Airport Weather Forecast for KOMN

Translated METAR and TAF for KOMN
Translated METAR for KOMN (1517 UTC 21 April 2014)
found at http://aviationweather.gov/adds/metars/
 
METAR text: KOMN 211450Z 36007KT 7SM OVC018 17/14 A3010
Conditions at: KOMN (ORMOND BEACH VOR, FL, US) observed 1450 UTC 21 April 2014
Temperature: 17.0°C (63°F)
Dewpoint: 14.0°C (57°F) [RH = 82%]
Pressure (altimeter): 30.10 inches Hg (1019.4 mb)
Winds: from the N (360 degrees) at 8 MPH (7 knots; 3.6 m/s)
Visibility: 7 miles (11 km)
Ceiling: 1800 feet AGL
Clouds: overcast cloud deck at 1800 feet AGL
Weather: no significant weather observed at this time
Translated TAF for KOMN

There is no translated TAF available for this airport

Find All Airport Services Find A Hotel Find A Rental Car Find A Golf Course Find A Restaurant $100 Hamburger



FBO's on the Field
FBO Company Facility Photos Services Transportation Aviation Fuel Prices: Prices include tax
Catering Weather Repair Courtesy Rental Type 100LL JetA JetA+ MOGAS 8087
 
Sunrise Aviation

Currently rated 1 by 2 people
FS:Shell
Last Updated: Apr-17
Login to update fuel prices
SS:
Contact Sunrise AviationMore FBO Information
 
Add another FBO Facility Photos Catering Weather Repair Courtesy Rental Type 100LL JetA JetA+ MOGAS 8087
Services Transportation Aviation Fuel Prices: Prices include tax


GlobalAir.com Airport Resource Center model-print
model-print
model-print
model-print